createdAt,value
2022-08-31T00:00:11.832Z,34.58
2022-08-31T00:02:59.395Z,31.67
2022-08-31T00:05:26.881Z,34.08
2022-08-31T00:07:54.464Z,36.03
2022-08-31T00:10:32.734Z,34.95
2022-08-31T00:13:04.870Z,36.08
2022-08-31T00:15:35.362Z,34.03
2022-08-31T00:18:02.625Z,34.50
2022-08-31T00:20:33.933Z,37.55
2022-08-31T00:23:11.732Z,35.15
2022-08-31T00:25:41.339Z,37.20
2022-08-31T00:28:08.814Z,32.92
2022-08-31T00:30:36.849Z,35.88
2022-08-31T00:33:04.334Z,36.55
2022-08-31T00:35:33.471Z,33.25
2022-08-31T00:38:01.386Z,33.35
2022-08-31T00:40:28.487Z,33.25
2022-08-31T00:42:56.309Z,32.75
2022-08-31T00:45:25.775Z,31.67
2022-08-31T00:47:52.823Z,34.50
2022-08-31T00:50:21.896Z,40.85
2022-08-31T00:52:56.976Z,35.05
2022-08-31T00:55:34.124Z,36.75
2022-08-31T00:58:07.751Z,37.00
2022-08-31T01:00:34.599Z,35.40
2022-08-31T01:03:06.094Z,34.65
2022-08-31T01:05:34.822Z,32.50
2022-08-31T01:08:03.111Z,32.40
2022-08-31T01:10:37.018Z,32.45
2022-08-31T01:13:04.388Z,32.10
2022-08-31T01:15:32.200Z,33.55
2022-08-31T01:18:04.938Z,35.88
2022-08-31T01:20:48.699Z,36.42
2022-08-31T01:23:35.333Z,34.17
2022-08-31T01:26:03.970Z,32.92
2022-08-31T01:28:30.633Z,33.97
2022-08-31T01:31:19.764Z,33.95
2022-08-31T01:33:46.904Z,34.53
2022-08-31T01:36:16.225Z,34.30
2022-08-31T01:38:44.067Z,31.75
2022-08-31T01:41:11.081Z,32.28
2022-08-31T01:43:41.000Z,31.58
2022-08-31T01:46:10.976Z,29.73
2022-08-31T01:48:41.600Z,33.05
2022-08-31T01:51:10.807Z,33.70
2022-08-31T01:53:42.687Z,36.53
2022-08-31T01:56:14.761Z,32.85
2022-08-31T01:58:41.933Z,32.47
2022-08-31T02:01:26.292Z,31.33
2022-08-31T02:03:59.873Z,32.53
2022-08-31T02:06:26.611Z,31.30
2022-08-31T02:08:53.318Z,30.42
2022-08-31T02:11:19.965Z,33.70
2022-08-31T02:13:47.120Z,28.95
2022-08-31T02:16:14.191Z,32.38
2022-08-31T02:18:40.934Z,30.63
2022-08-31T02:21:07.699Z,34.03
2022-08-31T02:23:34.468Z,30.20
2022-08-31T02:26:01.464Z,31.88
2022-08-31T02:28:28.130Z,34.00
2022-08-31T02:30:54.792Z,35.13
2022-08-31T02:33:21.563Z,31.90
2022-08-31T02:35:51.760Z,34.80
2022-08-31T02:38:22.996Z,34.75
2022-08-31T02:40:51.620Z,35.47
2022-08-31T02:43:24.738Z,40.20
2022-08-31T14:45:05.271Z,6.10
2022-08-31T14:47:42.705Z,6.10
2022-08-31T14:50:21.913Z,6.25
2022-08-31T14:52:52.820Z,6.70
2022-08-31T14:55:21.567Z,10.25
2022-08-31T14:57:57.292Z,9.45
2022-08-31T15:00:25.664Z,9.75
2022-08-31T15:02:56.740Z,7.95
2022-08-31T15:05:25.113Z,10.88
2022-08-31T15:07:53.927Z,11.35
2022-08-31T15:10:22.945Z,8.90
2022-08-31T15:12:54.088Z,6.68
2022-08-31T15:15:21.462Z,9.18
2022-08-31T15:17:51.498Z,5.75
2022-08-31T15:20:20.179Z,6.13
2022-08-31T15:22:48.410Z,9.02
2022-08-31T15:25:18.555Z,10.85
2022-08-31T15:27:47.357Z,8.73
2022-08-31T15:30:17.953Z,13.38
2022-08-31T15:32:46.917Z,7.85
2022-08-31T15:35:20.108Z,9.60
2022-08-31T15:38:00.508Z,7.72
2022-08-31T15:40:39.496Z,8.40
2022-08-31T15:43:09.623Z,10.20
2022-08-31T15:45:36.927Z,9.52
2022-08-31T15:48:23.401Z,6.43
2022-08-31T15:50:53.777Z,9.18
2022-08-31T15:53:23.813Z,5.72
2022-08-31T15:55:51.859Z,8.70
2022-08-31T15:58:24.523Z,6.50
2022-08-31T16:00:51.686Z,7.40
2022-08-31T16:03:18.647Z,6.97
2022-08-31T16:05:46.542Z,6.90
2022-08-31T16:08:14.279Z,9.95
2022-08-31T16:10:45.690Z,9.27
2022-08-31T16:13:13.908Z,7.38
2022-08-31T16:15:48.668Z,5.13
2022-08-31T16:18:15.672Z,5.28
2022-08-31T16:20:48.101Z,7.85
2022-08-31T16:23:15.697Z,5.20
2022-08-31T16:25:48.418Z,5.43
2022-08-31T16:28:18.799Z,10.93
2022-08-31T16:30:45.579Z,7.57
2022-08-31T16:33:12.402Z,5.40
2022-08-31T16:35:41.853Z,8.07
2022-08-31T16:38:08.555Z,7.70
2022-08-31T16:40:35.708Z,5.95
2022-08-31T16:43:03.560Z,8.05
2022-08-31T16:45:31.837Z,8.38
2022-08-31T16:48:17.282Z,10.25
2022-08-31T16:50:47.172Z,10.98
2022-08-31T16:53:18.202Z,7.68
2022-08-31T16:55:47.480Z,7.32
2022-08-31T16:58:24.898Z,9.20
2022-08-31T17:01:12.819Z,6.18
2022-08-31T17:03:41.657Z,7.68
2022-08-31T17:06:08.486Z,7.25
2022-08-31T17:08:44.265Z,6.90
2022-08-31T17:11:18.567Z,11.32
2022-08-31T17:13:49.024Z,9.80
2022-08-31T17:16:23.817Z,7.82
2022-08-31T17:18:52.619Z,7.55
2022-08-31T17:21:23.002Z,8.43
2022-08-31T17:23:51.274Z,5.68
2022-08-31T17:26:19.909Z,8.75
2022-08-31T17:29:00.226Z,8.52
2022-08-31T17:31:31.631Z,7.90
2022-08-31T17:33:59.661Z,6.68
2022-08-31T17:36:34.178Z,9.05
2022-08-31T17:39:05.605Z,17.08
2022-08-31T17:41:32.264Z,9.65
2022-08-31T17:44:03.108Z,8.32
2022-08-31T17:46:29.982Z,6.10
2022-08-31T17:48:56.866Z,9.38
2022-08-31T17:51:30.035Z,6.53
2022-08-31T17:53:59.561Z,8.65
2022-08-31T17:56:33.145Z,12.75
2022-08-31T17:58:59.812Z,8.90
2022-08-31T18:01:33.774Z,7.25
2022-08-31T18:04:00.958Z,6.97
2022-08-31T18:06:28.946Z,11.40
2022-08-31T18:08:57.283Z,10.35
2022-08-31T18:11:25.324Z,6.65
2022-08-31T18:13:53.714Z,7.13
2022-08-31T18:16:20.659Z,9.45
2022-08-31T18:18:49.320Z,6.80
2022-08-31T18:21:19.095Z,10.88
2022-08-31T18:23:47.571Z,8.60
2022-08-31T18:26:23.406Z,9.90
2022-08-31T18:28:52.320Z,8.57
2022-08-31T18:31:25.102Z,9.48
2022-08-31T18:33:52.607Z,11.13
2022-08-31T18:36:23.929Z,8.48
2022-08-31T18:38:51.836Z,6.90
2022-08-31T18:41:42.259Z,6.28
2022-08-31T18:44:28.669Z,9.00
2022-08-31T18:46:59.723Z,7.82
2022-08-31T18:49:28.170Z,5.95
2022-08-31T18:51:57.034Z,8.13
2022-08-31T18:54:24.942Z,8.02
2022-08-31T18:56:51.605Z,9.85
2022-08-31T18:59:20.187Z,9.93
2022-08-31T19:01:47.238Z,11.32
2022-08-31T19:04:16.602Z,9.95
2022-08-31T19:06:46.182Z,8.57
2022-08-31T19:09:14.137Z,8.77
2022-08-31T19:11:51.669Z,10.50
2022-08-31T19:14:20.134Z,11.50
2022-08-31T19:16:51.411Z,11.02
2022-08-31T19:19:28.517Z,8.02
2022-08-31T19:21:55.669Z,6.88
2022-08-31T19:24:23.007Z,6.68
2022-08-31T19:26:52.703Z,8.45
2022-08-31T19:29:23.031Z,6.97
2022-08-31T19:31:50.576Z,8.00
2022-08-31T19:34:27.631Z,6.55
2022-08-31T19:36:55.487Z,9.52
2022-08-31T19:39:27.311Z,6.60
2022-08-31T19:42:03.506Z,9.32
2022-08-31T19:44:54.295Z,11.18
2022-08-31T19:47:25.223Z,5.70
2022-08-31T19:49:52.838Z,7.68
2022-08-31T19:52:20.818Z,6.90
2022-08-31T19:54:48.855Z,7.43
2022-08-31T19:57:16.804Z,8.15
2022-08-31T19:59:43.843Z,6.30
2022-08-31T20:02:11.484Z,7.32
2022-08-31T20:04:38.271Z,8.85
2022-08-31T20:07:09.061Z,6.18
2022-08-31T20:09:35.853Z,5.45
2022-08-31T20:12:04.491Z,6.88
2022-08-31T20:14:32.161Z,4.30
2022-08-31T20:16:59.688Z,11.95
2022-08-31T20:19:28.368Z,6.40
2022-08-31T20:22:06.924Z,5.00
2022-08-31T20:24:43.734Z,5.20
2022-08-31T20:27:13.095Z,5.50
2022-08-31T20:29:39.864Z,5.68
2022-08-31T20:32:08.069Z,8.85
2022-08-31T20:34:35.733Z,8.18
2022-08-31T20:37:02.612Z,7.38
2022-08-31T20:39:31.457Z,11.40
2022-08-31T20:41:59.396Z,10.23
2022-08-31T20:44:30.795Z,10.88
2022-08-31T20:47:18.725Z,13.70
2022-08-31T20:49:57.992Z,12.10
2022-08-31T20:52:29.061Z,12.15
2022-08-31T20:55:01.282Z,13.48
2022-08-31T20:57:29.574Z,13.68
2022-08-31T20:59:56.253Z,12.88
2022-08-31T21:02:22.910Z,11.55
2022-08-31T21:04:50.284Z,15.70
2022-08-31T21:07:19.303Z,11.18
2022-08-31T21:09:46.879Z,15.35
2022-08-31T21:12:17.886Z,17.17
2022-08-31T21:14:45.657Z,13.43
2022-08-31T21:17:14.289Z,12.43
2022-08-31T21:19:42.767Z,16.45
2022-08-31T21:22:12.744Z,14.98
2022-08-31T21:24:43.301Z,16.52
2022-08-31T21:27:15.651Z,16.05
2022-08-31T21:29:46.893Z,17.08
2022-08-31T21:32:14.527Z,16.38
2022-08-31T21:34:41.376Z,18.50
2022-08-31T21:37:09.260Z,18.75
2022-08-31T21:39:36.546Z,18.45
2022-08-31T21:42:04.260Z,18.17
2022-08-31T21:44:31.815Z,16.38
2022-08-31T21:46:59.379Z,17.85
2022-08-31T21:49:26.187Z,20.48
2022-08-31T21:51:57.828Z,25.65
2022-08-31T21:54:28.487Z,26.17
2022-08-31T21:56:59.354Z,25.08
2022-08-31T21:59:28.690Z,28.80
2022-08-31T22:02:00.423Z,28.65
2022-08-31T22:04:32.588Z,27.60
2022-08-31T22:06:59.636Z,27.15
2022-08-31T22:09:28.795Z,28.02
2022-08-31T22:11:58.437Z,27.90
2022-08-31T22:14:29.576Z,22.80
2022-08-31T22:16:57.915Z,20.38
2022-08-31T22:19:27.184Z,17.75
2022-08-31T22:21:59.152Z,17.00
2022-08-31T22:24:31.768Z,21.42
2022-08-31T22:27:03.650Z,16.42
2022-08-31T22:29:33.964Z,17.85
2022-08-31T22:32:05.242Z,16.67
2022-08-31T22:34:31.859Z,19.80
2022-08-31T22:36:58.542Z,21.63
2022-08-31T22:39:31.659Z,21.15
2022-08-31T22:42:01.561Z,24.45
2022-08-31T22:44:34.260Z,23.40
2022-08-31T22:47:01.720Z,27.70
2022-08-31T22:49:28.420Z,31.13
2022-08-31T22:51:56.167Z,28.80
2022-08-31T22:54:23.443Z,29.92
2022-08-31T22:56:50.290Z,31.63
2022-08-31T22:59:26.162Z,31.77
2022-08-31T23:02:00.526Z,29.58
2022-08-31T23:04:29.297Z,32.72
2022-08-31T23:06:57.581Z,29.42
2022-08-31T23:09:27.843Z,26.67
2022-08-31T23:11:57.430Z,30.20
2022-08-31T23:14:24.603Z,32.08
2022-08-31T23:16:57.897Z,29.52
2022-08-31T23:19:37.247Z,26.30
2022-08-31T23:22:09.410Z,22.83
2022-08-31T23:24:41.308Z,23.85
2022-08-31T23:27:10.481Z,14.82
2022-08-31T23:29:58.869Z,11.77
2022-08-31T23:32:27.954Z,10.20
2022-08-31T23:34:57.199Z,10.73
2022-08-31T23:37:26.152Z,8.93
2022-08-31T23:39:54.185Z,8.20
2022-08-31T23:42:23.645Z,6.75
2022-08-31T23:44:56.447Z,9.60
2022-08-31T23:47:26.914Z,9.95
2022-08-31T23:49:54.197Z,7.43
2022-08-31T23:52:30.007Z,11.05
2022-08-31T23:57:32.454Z,12.02
